Time;durP1;ratioP1;P1;durP2;ratioP2;P2;SDS_P1;SDS_P2;PMS_P1;PMS_P2;Temp;Humidity;BMP_temperature;BMP_pressure;BME280_temperature;BME280_humidity;BME280_pressure;Samples;Min_cycle;Max_cycle;Signal;HPM_P1;HPM_P2
2023/04/19 00:02:02;;;;;;;9.47;8.60;;;13.50;40.40;;;;;;10334281;28;20230;-71
2023/04/19 00:07:05;;;;;;;8.67;7.97;;;13.50;40.70;;;;;;10337174;28;20718;-71
2023/04/19 00:12:08;;;;;;;8.70;7.90;;;13.50;40.50;;;;;;10332342;28;20225;-71
2023/04/19 00:17:13;;;;;;;10.10;9.10;;;13.50;40.60;;;;;;10330016;28;20317;-70
2023/04/19 00:22:16;;;;;;;10.13;9.20;;;13.50;40.80;;;;;;10335135;28;20742;-71
2023/04/19 00:27:19;;;;;;;9.57;8.77;;;13.50;40.70;;;;;;10347751;28;20601;-71
2023/04/19 00:32:24;;;;;;;10.33;9.43;;;13.50;40.70;;;;;;10341637;28;20231;-71
2023/04/19 00:37:27;;;;;;;10.83;9.97;;;13.50;40.90;;;;;;10348285;28;20330;-71
2023/04/19 00:42:30;;;;;;;10.03;9.10;;;13.40;40.70;;;;;;10340821;28;20567;-71
2023/04/19 00:47:35;;;;;;;9.37;8.57;;;13.40;40.70;;;;;;10343325;28;20227;-71
2023/04/19 00:52:39;;;;;;;9.73;8.93;;;13.40;40.90;;;;;;10344175;28;20253;-74
2023/04/19 00:57:42;;;;;;;9.20;8.50;;;13.40;40.80;;;;;;10348663;28;20609;-74
2023/04/19 01:02:47;;;;;;;9.73;8.93;;;13.40;40.90;;;;;;10349675;28;20222;-74
2023/04/19 01:07:50;;;;;;;10.00;9.10;;;13.40;41.10;;;;;;10351796;28;20367;-74
2023/04/19 01:12:53;;;;;;;10.47;9.50;;;13.40;40.90;;;;;;10351481;28;20250;-74
2023/04/19 01:17:58;;;;;;;10.13;9.23;;;13.40;40.90;;;;;;10348568;28;20718;-74
2023/04/19 01:23:03;;;;;;;10.37;9.47;;;13.30;40.90;;;;;;10343936;28;20223;-74
2023/04/19 01:28:07;;;;;;;10.77;9.87;;;13.30;41.00;;;;;;10350243;28;20632;-74
2023/04/19 01:33:10;;;;;;;10.20;9.30;;;13.30;41.00;;;;;;10350511;28;20234;-74
2023/04/19 01:38:15;;;;;;;10.73;9.73;;;13.30;40.90;;;;;;10347117;28;20234;-74
2023/04/19 01:43:18;;;;;;;10.70;9.80;;;13.20;41.10;;;;;;10348907;28;20223;-74
2023/04/19 01:48:21;;;;;;;11.20;10.30;;;13.20;41.10;;;;;;10347574;28;20235;-74
2023/04/19 01:53:26;;;;;;;11.47;10.47;;;13.20;41.00;;;;;;10348272;28;20238;-75
2023/04/19 01:58:29;;;;;;;11.03;10.10;;;13.20;41.20;;;;;;10343270;28;20234;-74
2023/04/19 02:03:32;;;;;;;12.10;11.00;;;13.20;41.00;;;;;;10351058;28;20227;-74
2023/04/19 02:08:37;;;;;;;11.40;10.40;;;13.20;41.20;;;;;;10345718;28;20253;-74
2023/04/19 02:13:41;;;;;;;11.20;10.17;;;13.10;41.30;;;;;;10344484;28;20253;-74
2023/04/19 02:18:45;;;;;;;10.63;9.63;;;13.10;41.10;;;;;;10348539;28;20257;-74
2023/04/19 02:23:50;;;;;;;12.20;11.00;;;13.10;41.10;;;;;;10342829;28;20227;-74
2023/04/19 02:28:53;;;;;;;12.03;11.03;;;13.10;41.30;;;;;;10347123;28;20645;-75
2023/04/19 02:33:57;;;;;;;11.23;10.23;;;13.10;41.20;;;;;;10345188;28;20592;-74
2023/04/19 02:39:02;;;;;;;11.47;10.37;;;13.10;41.40;;;;;;10347708;28;20227;-74
2023/04/19 02:44:05;;;;;;;11.80;10.70;;;13.10;41.40;;;;;;10346117;28;20257;-74
2023/04/19 02:49:08;;;;;;;11.43;10.43;;;13.00;41.30;;;;;;10341398;28;20412;-74
2023/04/19 02:54:13;;;;;;;12.00;10.80;;;13.00;41.30;;;;;;10345249;28;20237;-74
2023/04/19 02:59:17;;;;;;;12.13;10.87;;;13.00;41.60;;;;;;10348250;28;20226;-74
2023/04/19 03:04:20;;;;;;;12.33;11.13;;;13.10;41.60;;;;;;10341630;28;20238;-74
2023/04/19 03:09:25;;;;;;;12.80;11.57;;;13.10;41.40;;;;;;10343818;28;20240;-74
2023/04/19 03:14:28;;;;;;;12.53;11.23;;;13.00;41.40;;;;;;10344305;28;21044;-75
2023/04/19 03:19:31;;;;;;;11.57;10.57;;;13.00;41.30;;;;;;10345735;28;20294;-74
2023/04/19 03:24:36;;;;;;;12.60;11.40;;;12.90;41.30;;;;;;10344142;28;20232;-74
2023/04/19 03:29:40;;;;;;;13.03;11.83;;;13.00;41.60;;;;;;10345501;28;20289;-74
2023/04/19 03:34:43;;;;;;;11.60;10.53;;;13.00;41.40;;;;;;10344615;28;20515;-74
2023/04/19 03:39:47;;;;;;;13.30;12.00;;;13.00;41.50;;;;;;10342427;28;20230;-74
2023/04/19 03:44:51;;;;;;;12.90;11.70;;;13.00;41.80;;;;;;10344771;28;20223;-74
2023/04/19 03:49:54;;;;;;;11.70;10.63;;;13.00;41.70;;;;;;10337533;28;20229;-69
2023/04/19 03:54:58;;;;;;;12.50;11.23;;;13.00;41.70;;;;;;10331319;28;20226;-68
2023/04/19 04:00:05;;;;;;;12.80;11.60;;;13.00;41.80;;;;;;10337742;28;20237;-68
2023/04/19 04:05:09;;;;;;;12.43;11.13;;;13.00;41.50;;;;;;10339172;28;20228;-68
2023/04/19 04:10:14;;;;;;;11.40;10.30;;;13.00;41.40;;;;;;10339135;28;20717;-67
2023/04/19 04:15:17;;;;;;;10.63;9.67;;;13.00;41.50;;;;;;10338926;28;20256;-68
2023/04/19 04:20:20;;;;;;;12.83;11.63;;;13.00;41.30;;;;;;10336924;28;20635;-68
2023/04/19 04:25:27;;;;;;;13.03;11.83;;;13.00;41.40;;;;;;10336393;28;20240;-67
2023/04/19 04:30:31;;;;;;;13.00;11.60;;;13.00;41.40;;;;;;10336592;28;20248;-68
2023/04/19 04:35:34;;;;;;;12.93;11.67;;;12.90;41.20;;;;;;10337579;28;20261;-69
2023/04/19 04:40:38;;;;;;;12.47;11.27;;;12.90;41.10;;;;;;10335155;28;20226;-69
2023/04/19 04:45:43;;;;;;;13.17;11.67;;;12.90;41.10;;;;;;10338462;28;20226;-69
2023/04/19 04:50:46;;;;;;;13.13;11.83;;;12.80;41.00;;;;;;10335513;28;20991;-69
2023/04/19 04:55:51;;;;;;;11.80;10.60;;;12.70;41.00;;;;;;10336582;28;20508;-71
2023/04/19 05:00:54;;;;;;;11.93;10.83;;;12.70;41.40;;;;;;10334792;28;20808;-71
2023/04/19 05:05:58;;;;;;;12.07;10.77;;;12.70;41.40;;;;;;10334347;28;20316;-71
2023/04/19 05:11:02;;;;;;;12.30;11.10;;;12.70;41.20;;;;;;10336765;28;20230;-71
2023/04/19 05:16:06;;;;;;;12.50;11.30;;;12.70;41.40;;;;;;10333366;28;20227;-71
2023/04/19 05:21:10;;;;;;;11.97;10.77;;;12.70;41.40;;;;;;10332412;28;20225;-71
2023/04/19 05:26:14;;;;;;;11.87;10.67;;;12.70;41.40;;;;;;10333198;28;20733;-70
2023/04/19 05:31:19;;;;;;;12.57;11.37;;;12.70;41.40;;;;;;10334620;28;20227;-71
2023/04/19 05:36:23;;;;;;;13.23;11.90;;;12.70;41.60;;;;;;10331425;28;20336;-71
2023/04/19 05:41:27;;;;;;;13.40;12.10;;;12.70;41.50;;;;;;10331996;28;20238;-71
2023/04/19 05:46:30;;;;;;;12.97;11.67;;;12.70;41.40;;;;;;10331982;28;20262;-71
2023/04/19 05:51:34;;;;;;;12.77;11.50;;;12.70;41.20;;;;;;10327140;28;20269;-70
2023/04/19 05:56:38;;;;;;;13.20;11.90;;;12.70;41.30;;;;;;10322545;28;20223;-69
2023/04/19 06:01:42;;;;;;;13.80;12.40;;;12.70;41.60;;;;;;10322491;28;20660;-73
2023/04/19 06:06:45;;;;;;;13.47;12.17;;;12.60;41.60;;;;;;10318177;28;20346;-73
2023/04/19 06:11:49;;;;;;;14.47;12.80;;;12.70;41.80;;;;;;10319777;28;20833;-73
2023/04/19 06:16:53;;;;;;;13.03;11.77;;;12.70;42.20;;;;;;10317137;28;20783;-73
2023/04/19 06:21:57;;;;;;;13.63;12.27;;;12.80;41.90;;;;;;10322273;28;20230;-72
2023/04/19 06:27:02;;;;;;;13.50;12.20;;;12.80;41.90;;;;;;10323728;28;20459;-72
2023/04/19 06:32:05;;;;;;;14.17;12.77;;;12.90;42.30;;;;;;10327474;28;20215;-73
2023/04/19 06:37:08;;;;;;;14.57;13.17;;;12.90;42.20;;;;;;10335060;28;20780;-73
2023/04/19 06:42:13;;;;;;;14.67;13.27;;;13.00;42.40;;;;;;10329796;28;20234;-73
2023/04/19 06:47:16;;;;;;;14.40;13.00;;;13.10;42.20;;;;;;10327278;28;20285;-74
2023/04/19 06:52:19;;;;;;;14.73;13.33;;;13.10;42.00;;;;;;10328450;28;20230;-74
2023/04/19 06:57:24;;;;;;;14.27;12.87;;;13.10;42.00;;;;;;10331620;28;20234;-75
2023/04/19 07:02:29;;;;;;;14.53;13.00;;;13.20;42.20;;;;;;10331370;28;20246;-75
2023/04/19 07:07:33;;;;;;;14.83;13.43;;;13.20;42.00;;;;;;10334473;28;20721;-75
2023/04/19 07:12:37;;;;;;;15.77;14.07;;;13.30;42.00;;;;;;10332514;28;20226;-75
2023/04/19 07:17:41;;;;;;;14.77;13.03;;;13.40;42.00;;;;;;10328874;28;20234;-74
2023/04/19 07:22:44;;;;;;;14.07;12.77;;;13.40;42.00;;;;;;10328847;28;20311;-75
2023/04/19 07:27:49;;;;;;;14.97;13.47;;;13.50;42.10;;;;;;10330222;28;20887;-75
2023/04/19 07:32:52;;;;;;;15.10;13.63;;;13.50;41.90;;;;;;10326713;28;20222;-75
2023/04/19 07:37:55;;;;;;;15.23;13.73;;;13.60;41.90;;;;;;10323611;28;20280;-75
2023/04/19 07:43:00;;;;;;;14.40;12.97;;;13.60;41.80;;;;;;10326452;28;20226;-75
2023/04/19 07:48:03;;;;;;;15.20;13.80;;;13.60;41.50;;;;;;10329154;28;20226;-71
2023/04/19 07:53:06;;;;;;;14.77;13.27;;;13.70;41.70;;;;;;10318868;28;20221;-70
2023/04/19 07:58:11;;;;;;;13.47;12.20;;;13.70;41.70;;;;;;10322512;28;20818;-71
2023/04/19 08:03:14;;;;;;;13.70;12.40;;;13.80;41.70;;;;;;10319647;28;20293;-70
2023/04/19 08:08:18;;;;;;;13.70;12.50;;;13.90;41.80;;;;;;10322915;28;20234;-71
2023/04/19 08:13:23;;;;;;;14.70;13.20;;;13.90;42.00;;;;;;10323578;28;20699;-71
2023/04/19 08:18:26;;;;;;;15.97;14.37;;;14.00;41.90;;;;;;10320813;28;20635;-70
2023/04/19 08:23:29;;;;;;;14.63;13.27;;;14.10;41.90;;;;;;10319169;28;20664;-70
2023/04/19 08:28:44;;;;;;;15.37;13.90;;;14.20;41.90;;;;;;10322830;28;20227;-70
2023/04/19 08:33:48;;;;;;;16.70;15.10;;;14.20;41.70;;;;;;10319281;28;20310;-71
2023/04/19 08:38:51;;;;;;;15.83;14.30;;;14.20;41.60;;;;;;10320852;28;20567;-70
2023/04/19 08:44:12;;;;;;;15.63;14.13;;;14.30;41.50;;;;;;10323669;28;20702;-71
2023/04/19 08:49:18;;;;;;;15.93;14.33;;;14.30;41.70;;;;;;10329211;28;20225;-71
2023/04/19 08:54:22;;;;;;;14.97;13.57;;;14.30;42.50;;;;;;10329330;28;20611;-71
2023/04/19 08:59:27;;;;;;;15.23;13.63;;;14.40;41.90;;;;;;10317379;28;20720;-71
2023/04/19 09:04:30;;;;;;;15.23;13.77;;;14.40;41.90;;;;;;10330347;28;20238;-70
2023/04/19 09:09:41;;;;;;;13.83;12.63;;;14.50;41.80;;;;;;10330091;28;20226;-71
2023/04/19 09:15:08;;;;;;;14.80;13.30;;;14.60;41.90;;;;;;10325995;28;20222;-71
2023/04/19 09:20:12;;;;;;;14.07;12.77;;;14.60;41.80;;;;;;10326795;28;20242;-70
2023/04/19 09:25:25;;;;;;;14.27;12.93;;;14.60;41.60;;;;;;10324514;28;20222;-71
2023/04/19 09:30:49;;;;;;;14.60;13.20;;;14.70;41.40;;;;;;10328002;28;20229;-71
2023/04/19 09:35:55;;;;;;;15.73;14.17;;;14.70;41.60;;;;;;10327015;28;20758;-70
2023/04/19 09:41:07;;;;;;;14.63;13.23;;;14.80;41.70;;;;;;10328202;28;20353;-69
2023/04/19 09:46:30;;;;;;;13.03;11.83;;;14.80;41.60;;;;;;10328593;28;20223;-69
2023/04/19 09:51:40;;;;;;;13.83;12.43;;;14.80;41.90;;;;;;10329247;28;20293;-68
2023/04/19 09:56:44;;;;;;;12.67;11.57;;;14.80;41.40;;;;;;10328812;28;20231;-69
2023/04/19 10:01:54;;;;;;;13.57;12.27;;;14.70;41.30;;;;;;10325070;28;20289;-69
2023/04/19 10:06:58;;;;;;;12.07;10.97;;;14.60;42.10;;;;;;10327661;28;20226;-69
2023/04/19 10:12:24;;;;;;;12.40;11.10;;;14.60;41.60;;;;;;10322726;28;20257;-70
2023/04/19 10:17:31;;;;;;;12.67;11.43;;;14.50;41.60;;;;;;10327703;28;20238;-69
2023/04/19 10:22:37;;;;;;;12.63;11.53;;;14.50;42.00;;;;;;10324402;28;20229;-69
2023/04/19 10:27:44;;;;;;;11.83;10.67;;;14.40;41.90;;;;;;10324142;28;20500;-69
2023/04/19 10:32:55;;;;;;;11.63;10.53;;;14.30;41.80;;;;;;10325295;28;20223;-69
2023/04/19 10:38:10;;;;;;;11.37;10.30;;;14.30;42.10;;;;;;10326556;28;20229;-71
2023/04/19 10:43:18;;;;;;;11.40;10.30;;;14.20;42.50;;;;;;10320909;28;20256;-71
2023/04/19 10:48:52;;;;;;;11.70;10.50;;;14.20;42.80;;;;;;10324735;28;20317;-71
2023/04/19 10:53:57;;;;;;;11.40;10.40;;;14.10;43.00;;;;;;10326417;28;20222;-71
2023/04/19 10:59:21;;;;;;;11.10;10.00;;;14.00;42.70;;;;;;10322840;28;20231;-71
2023/04/19 11:05:02;;;;;;;10.80;9.80;;;14.00;43.50;;;;;;10323200;28;20241;-71
2023/04/19 11:10:07;;;;;;;10.07;9.07;;;13.90;43.40;;;;;;10326736;28;20234;-71
2023/04/19 11:15:10;;;;;;;9.33;8.53;;;14.00;43.10;;;;;;10325432;28;20252;-70
2023/04/19 11:20:15;;;;;;;9.33;8.53;;;13.90;43.00;;;;;;10321849;28;20251;-70
2023/04/19 11:25:19;;;;;;;8.57;7.87;;;13.90;43.40;;;;;;10324010;28;20652;-72
2023/04/19 11:30:29;;;;;;;8.60;7.80;;;13.90;43.40;;;;;;10324126;28;20513;-71
2023/04/19 11:35:34;;;;;;;7.37;6.77;;;13.90;43.70;;;;;;10324663;28;20912;-72
2023/04/19 11:40:38;;;;;;;7.07;6.47;;;13.90;43.40;;;;;;10323873;28;20431;-71
2023/04/19 11:45:41;;;;;;;7.03;6.43;;;13.90;43.00;;;;;;10326771;28;20238;-71
2023/04/19 11:50:48;;;;;;;7.30;6.70;;;13.80;43.10;;;;;;10320324;28;20235;-71
2023/04/19 11:55:53;;;;;;;7.33;6.63;;;13.80;43.30;;;;;;10325566;28;20779;-71
2023/04/19 12:00:59;;;;;;;6.83;6.33;;;13.80;43.30;;;;;;10312748;28;20230;-70
2023/04/19 12:06:07;;;;;;;5.63;5.23;;;13.80;43.30;;;;;;10315043;28;20230;-71
2023/04/19 12:11:11;;;;;;;6.30;5.80;;;13.80;43.30;;;;;;10322083;28;20375;-75
2023/04/19 12:16:14;;;;;;;5.70;5.20;;;13.70;43.20;;;;;;10313604;28;20609;-71
2023/04/19 12:21:26;;;;;;;6.17;5.57;;;13.70;43.20;;;;;;10321853;28;20283;-71
2023/04/19 12:26:30;;;;;;;5.87;5.37;;;13.70;43.20;;;;;;10323746;28;20230;-71
2023/04/19 12:31:33;;;;;;;7.27;6.57;;;13.60;43.10;;;;;;10322050;28;20234;-71
2023/04/19 12:36:38;;;;;;;8.30;7.50;;;13.50;42.60;;;;;;10323375;28;20233;-71
2023/04/19 12:41:41;;;;;;;8.13;7.23;;;13.40;42.90;;;;;;10322481;28;20230;-71
2023/04/19 12:46:44;;;;;;;8.57;7.77;;;13.20;42.70;;;;;;10329273;28;20729;-71
2023/04/19 12:51:48;;;;;;;7.97;7.27;;;13.10;42.70;;;;;;10325147;28;20230;-71
2023/04/19 12:56:51;;;;;;;9.00;8.20;;;13.00;42.60;;;;;;10320929;28;20605;-71
2023/04/19 13:01:55;;;;;;;8.00;7.30;;;13.00;42.60;;;;;;10319915;28;20223;-71
2023/04/19 13:07:00;;;;;;;8.30;7.60;;;12.80;42.40;;;;;;10324436;28;20703;-71
2023/04/19 13:12:04;;;;;;;8.53;7.80;;;12.70;42.30;;;;;;10334683;28;20230;-73
2023/04/19 13:17:08;;;;;;;8.93;8.13;;;12.60;42.30;;;;;;10336161;28;20234;-75
2023/04/19 13:22:12;;;;;;;8.30;7.60;;;12.60;42.60;;;;;;10334886;28;20628;-75
2023/04/19 13:27:16;;;;;;;8.70;7.93;;;12.50;42.70;;;;;;10338226;28;20723;-75
2023/04/19 13:32:19;;;;;;;8.30;7.50;;;12.50;42.70;;;;;;10330660;28;20281;-74
2023/04/19 13:37:24;;;;;;;7.47;6.87;;;12.50;42.70;;;;;;10335910;28;20245;-75
2023/04/19 13:42:27;;;;;;;7.03;6.43;;;12.50;43.10;;;;;;10333337;28;20242;-71
2023/04/19 13:47:30;;;;;;;6.83;6.23;;;12.40;43.00;;;;;;10343205;28;20238;-72
2023/04/19 13:52:35;;;;;;;7.13;6.53;;;12.40;43.00;;;;;;10337639;28;20231;-74
2023/04/19 13:57:38;;;;;;;6.23;5.63;;;12.50;43.30;;;;;;10333532;28;20630;-71
2023/04/19 14:02:42;;;;;;;5.77;5.27;;;12.50;43.00;;;;;;10334501;28;20566;-71
2023/04/19 14:07:49;;;;;;;5.57;5.00;;;12.50;42.80;;;;;;10336596;28;20229;-71
2023/04/19 14:12:52;;;;;;;6.27;5.77;;;12.60;42.60;;;;;;10335504;28;20225;-70
2023/04/19 14:17:55;;;;;;;4.80;4.40;;;12.60;42.60;;;;;;10334361;28;20224;-71
2023/04/19 14:23:00;;;;;;;5.80;5.30;;;12.50;42.50;;;;;;10332280;28;20227;-71
2023/04/19 14:28:03;;;;;;;6.03;5.60;;;12.60;42.80;;;;;;10335520;28;20234;-71
2023/04/19 14:33:07;;;;;;;5.00;4.60;;;12.60;42.80;;;;;;10335486;28;20254;-72
2023/04/19 14:38:11;;;;;;;5.60;5.20;;;12.70;42.40;;;;;;10331426;28;20611;-71
2023/04/19 14:43:15;;;;;;;4.13;3.83;;;12.70;42.30;;;;;;10334228;28;20235;-71
2023/04/19 14:48:19;;;;;;;5.33;4.83;;;12.70;42.30;;;;;;10332966;28;20230;-71
2023/04/19 14:53:25;;;;;;;4.93;4.53;;;12.70;42.30;;;;;;10332542;28;20322;-71
2023/04/19 14:58:28;;;;;;;5.37;4.97;;;12.70;42.30;;;;;;10332117;28;20676;-71
2023/04/19 15:03:31;;;;;;;6.10;5.60;;;12.80;42.40;;;;;;10332819;28;20243;-71
2023/04/19 15:08:36;;;;;;;5.47;4.97;;;12.80;42.40;;;;;;10331169;28;20301;-72
2023/04/19 15:13:40;;;;;;;6.43;5.83;;;12.80;42.40;;;;;;10335827;28;20226;-71
2023/04/19 15:18:43;;;;;;;5.83;5.23;;;12.90;42.50;;;;;;10335768;28;20219;-71
2023/04/19 15:23:48;;;;;;;5.00;4.60;;;12.80;42.40;;;;;;10330171;28;20230;-71
2023/04/19 15:28:51;;;;;;;5.17;4.77;;;12.70;42.30;;;;;;10332670;28;20355;-71
2023/04/19 15:33:56;;;;;;;5.43;5.03;;;12.70;42.30;;;;;;10331076;28;20246;-71
2023/04/19 15:39:00;;;;;;;5.30;4.90;;;12.60;42.20;;;;;;10329673;28;20222;-70
2023/04/19 15:44:03;;;;;;;5.33;4.83;;;12.60;42.20;;;;;;10331692;28;20230;-68
2023/04/19 15:49:06;;;;;;;5.63;5.17;;;12.60;43.00;;;;;;10332245;28;20230;-69
2023/04/19 15:54:13;;;;;;;5.27;4.87;;;12.60;43.10;;;;;;10332608;28;20230;-70
2023/04/19 15:59:16;;;;;;;8.43;7.30;;;12.70;43.10;;;;;;10331170;28;20711;-70
2023/04/19 16:04:20;;;;;;;8.87;8.07;;;12.80;42.40;;;;;;10328840;28;20726;-69
2023/04/19 16:09:25;;;;;;;6.57;6.00;;;12.80;42.40;;;;;;10334381;28;20230;-69
2023/04/19 16:14:28;;;;;;;6.17;5.67;;;12.70;42.30;;;;;;10326329;28;20235;-69
2023/04/19 16:19:31;;;;;;;5.87;5.43;;;12.70;42.30;;;;;;10331414;28;20241;-69
2023/04/19 16:24:36;;;;;;;7.10;6.50;;;12.60;42.20;;;;;;10331037;28;20619;-69
2023/04/19 16:29:39;;;;;;;6.27;5.70;;;12.50;42.10;;;;;;10331845;28;20230;-69
2023/04/19 16:34:42;;;;;;;5.70;5.30;;;12.50;42.10;;;;;;10334778;28;20232;-69
2023/04/19 16:39:46;;;;;;;5.83;5.33;;;12.40;42.00;;;;;;10327808;28;20573;-69
2023/04/19 16:44:49;;;;;;;6.30;5.80;;;12.40;42.00;;;;;;10331771;28;20231;-71
2023/04/19 16:49:53;;;;;;;5.93;5.43;;;12.40;42.00;;;;;;10333446;28;20243;-71
2023/04/19 16:55:02;;;;;;;6.13;5.63;;;12.30;42.00;;;;;;10333108;28;20531;-71
2023/04/19 17:00:06;;;;;;;5.53;5.03;;;12.30;42.00;;;;;;10331516;28;20237;-71
2023/04/19 17:05:11;;;;;;;6.10;5.60;;;12.30;42.00;;;;;;10331908;28;20226;-72
2023/04/19 17:10:16;;;;;;;8.50;7.70;;;12.30;42.00;;;;;;10335809;28;20309;-72
2023/04/19 17:15:19;;;;;;;7.73;7.00;;;12.20;41.90;;;;;;10338970;28;20227;-72
2023/04/19 17:20:22;;;;;;;5.73;5.23;;;12.30;42.00;;;;;;10331744;28;20235;-72
2023/04/19 17:25:27;;;;;;;6.40;5.90;;;12.40;42.30;;;;;;10334834;28;20234;-78
2023/04/19 17:30:30;;;;;;;7.20;6.60;;;12.40;42.00;;;;;;10350458;28;20235;-77
2023/04/19 17:35:35;;;;;;;7.37;6.77;;;12.40;42.00;;;;;;10360043;28;20710;-71
2023/04/19 17:40:40;;;;;;;5.90;5.40;;;12.50;42.10;;;;;;10341795;28;20598;-71
2023/04/19 17:45:43;;;;;;;7.30;6.70;;;12.40;42.00;;;;;;10336416;28;20242;-71
2023/04/19 17:50:47;;;;;;;7.27;6.67;;;12.50;42.20;;;;;;10343122;28;20226;-71
2023/04/19 17:55:54;;;;;;;6.37;5.87;;;12.50;42.10;;;;;;10337604;28;20231;-71
2023/04/19 18:00:58;;;;;;;6.33;5.83;;;12.50;42.10;;;;;;10338555;28;20228;-71
2023/04/19 18:06:01;;;;;;;6.97;6.37;;;12.60;42.20;;;;;;10352676;28;20861;-75
2023/04/19 18:11:06;;;;;;;8.20;7.50;;;12.60;42.20;;;;;;10361273;28;20225;-75
2023/04/19 18:16:10;;;;;;;8.50;7.70;;;12.60;42.20;;;;;;10350631;28;20652;-75
2023/04/19 18:21:13;;;;;;;8.70;8.00;;;12.50;42.10;;;;;;10354956;28;20229;-75
2023/04/19 18:26:18;;;;;;;9.10;8.30;;;12.40;42.00;;;;;;10352230;28;20253;-75
2023/04/19 18:31:21;;;;;;;9.47;8.57;;;12.40;42.20;;;;;;10351141;28;20765;-74
2023/04/19 18:36:26;;;;;;;7.60;7.00;;;12.40;42.00;;;;;;10350485;28;20235;-75
2023/04/19 18:41:31;;;;;;;8.33;7.50;;;12.40;42.10;;;;;;10359535;28;20230;-74
2023/04/19 18:46:37;;;;;;;8.13;7.43;;;12.50;42.10;;;;;;10358830;28;20345;-74
2023/04/19 18:51:40;;;;;;;7.00;5.67;;;12.40;42.10;;;;;;10357909;28;20756;-74
2023/04/19 18:56:45;;;;;;;6.40;5.80;;;12.40;41.70;;;;;;10356330;28;20309;-75
2023/04/19 19:01:52;;;;;;;7.00;6.30;;;12.30;41.40;;;;;;10358011;28;20219;-74
2023/04/19 19:07:00;;;;;;;7.07;6.40;;;12.10;41.70;;;;;;10355220;28;20234;-75
2023/04/19 19:12:23;;;;;;;6.00;5.33;;;12.10;41.80;;;;;;10354730;28;20230;-74
2023/04/19 19:17:27;;;;;;;8.97;8.20;;;12.00;41.70;;;;;;10345944;28;20239;-75
2023/04/19 19:22:31;;;;;;;8.10;7.30;;;11.90;41.60;;;;;;10346520;28;20234;-75
2023/04/19 19:27:38;;;;;;;8.50;7.80;;;11.90;41.70;;;;;;10329512;28;20614;-75
2023/04/19 19:32:42;;;;;;;8.87;8.07;;;11.90;41.60;;;;;;10322887;28;20234;-75
2023/04/19 19:37:45;;;;;;;9.40;8.50;;;11.80;41.50;;;;;;10325199;28;20612;-75
2023/04/19 19:42:49;;;;;;;6.20;5.63;;;11.80;41.50;;;;;;10324756;28;20234;-75
2023/04/19 19:47:53;;;;;;;7.90;7.20;;;11.70;41.70;;;;;;10323128;28;20727;-76
2023/04/19 19:52:56;;;;;;;9.03;7.83;;;11.70;42.00;;;;;;10319537;28;20700;-75
2023/04/19 19:58:01;;;;;;;9.20;8.27;;;11.70;42.10;;;;;;10316076;28;20235;-75
2023/04/19 20:03:25;;;;;;;8.17;7.47;;;11.70;42.30;;;;;;10314675;28;20341;-75
2023/04/19 20:08:40;;;;;;;8.13;7.37;;;11.80;42.10;;;;;;10322665;28;20588;-75
2023/04/19 20:13:48;;;;;;;9.47;8.67;;;11.80;41.90;;;;;;10322950;28;20726;-75
2023/04/19 20:18:51;;;;;;;6.97;6.37;;;11.70;41.40;;;;;;10325924;28;20226;-75
2023/04/19 20:23:54;;;;;;;6.60;6.07;;;11.60;41.30;;;;;;10322513;28;20707;-74
2023/04/19 20:28:59;;;;;;;7.33;6.73;;;11.50;41.30;;;;;;10324137;28;20238;-74
2023/04/19 20:34:05;;;;;;;6.67;6.03;;;11.50;42.00;;;;;;10322879;28;20215;-73
2023/04/19 20:39:11;;;;;;;7.43;6.73;;;11.40;42.30;;;;;;10321800;28;20238;-76
2023/04/19 20:44:17;;;;;;;8.60;7.67;;;11.40;42.30;;;;;;10331349;28;20378;-74
2023/04/19 20:49:20;;;;;;;7.37;6.67;;;11.40;42.20;;;;;;10333527;28;20235;-75
2023/04/19 20:54:23;;;;;;;7.43;6.80;;;11.40;42.10;;;;;;10325986;28;20524;-74
2023/04/19 20:59:28;;;;;;;7.60;6.97;;;11.30;41.90;;;;;;10332614;28;20239;-74
2023/04/19 21:04:31;;;;;;;7.00;6.40;;;11.20;41.70;;;;;;10331059;28;20242;-75
2023/04/19 21:09:35;;;;;;;7.43;6.67;;;11.10;41.50;;;;;;10333517;28;20234;-75
2023/04/19 21:14:40;;;;;;;6.53;5.93;;;11.00;41.60;;;;;;10330251;28;20486;-75
2023/04/19 21:19:43;;;;;;;7.00;6.33;;;10.90;41.80;;;;;;10331588;28;20230;-76
2023/04/19 21:24:46;;;;;;;6.63;6.03;;;10.80;41.90;;;;;;10333827;28;20238;-76
2023/04/19 21:29:51;;;;;;;5.80;5.37;;;10.70;41.90;;;;;;10332631;28;20237;-75
2023/04/19 21:34:55;;;;;;;5.40;5.00;;;10.60;42.20;;;;;;10329166;28;21080;-75
2023/04/19 21:39:58;;;;;;;5.80;4.87;;;10.60;42.20;;;;;;10331402;28;20305;-75
2023/04/19 21:45:02;;;;;;;4.87;4.47;;;10.60;42.20;;;;;;10332804;28;20237;-75
2023/04/19 21:50:07;;;;;;;5.47;4.87;;;10.50;42.00;;;;;;10332598;28;20227;-75
2023/04/19 21:55:10;;;;;;;5.33;4.83;;;10.50;42.10;;;;;;10332606;28;20225;-75
2023/04/19 22:00:15;;;;;;;4.87;4.47;;;10.50;42.40;;;;;;10329708;28;20230;-75
2023/04/19 22:05:19;;;;;;;4.80;4.30;;;10.50;42.60;;;;;;10325106;28;20798;-75
2023/04/19 22:10:22;;;;;;;5.17;4.70;;;10.60;42.40;;;;;;10328907;28;20235;-75
2023/04/19 22:15:27;;;;;;;4.70;4.30;;;10.60;42.10;;;;;;10325776;28;20464;-75
2023/04/19 22:20:31;;;;;;;4.73;4.13;;;10.60;42.30;;;;;;10330877;28;20239;-75
2023/04/19 22:25:34;;;;;;;4.17;3.87;;;10.60;42.20;;;;;;10331017;28;20243;-75
2023/04/19 22:30:39;;;;;;;5.53;4.20;;;10.70;42.30;;;;;;10329839;28;20237;-75
2023/04/19 22:35:42;;;;;;;4.07;3.77;;;10.70;42.30;;;;;;10330687;28;20601;-74
2023/04/19 22:40:45;;;;;;;4.13;3.80;;;10.70;42.00;;;;;;10329849;28;20226;-75
2023/04/19 22:45:49;;;;;;;4.00;3.70;;;10.60;41.60;;;;;;10328464;28;20314;-75
2023/04/19 22:50:53;;;;;;;4.17;3.77;;;10.50;41.10;;;;;;10327755;28;20230;-75
2023/04/19 22:55:56;;;;;;;4.13;3.83;;;10.40;41.50;;;;;;10331403;28;20254;-76
2023/04/19 23:01:01;;;;;;;4.93;4.30;;;10.30;41.50;;;;;;10327951;28;20231;-75
2023/04/19 23:06:04;;;;;;;6.10;5.50;;;10.30;41.50;;;;;;10321575;28;20227;-77
2023/04/19 23:11:08;;;;;;;6.07;5.37;;;10.20;41.40;;;;;;10327750;28;20314;-74
2023/04/19 23:16:13;;;;;;;5.00;4.53;;;10.10;41.60;;;;;;10327033;28;20238;-75
2023/04/19 23:21:16;;;;;;;4.63;4.23;;;10.10;41.80;;;;;;10327861;28;20692;-75
2023/04/19 23:26:20;;;;;;;4.57;3.60;;;10.00;41.60;;;;;;10329190;28;20242;-75
2023/04/19 23:31:25;;;;;;;3.43;3.17;;;10.00;41.50;;;;;;10329167;28;20304;-74
2023/04/19 23:36:28;;;;;;;3.50;3.20;;;10.00;41.80;;;;;;10329304;28;20542;-77
2023/04/19 23:41:31;;;;;;;4.00;3.60;;;10.00;41.50;;;;;;10332417;28;20244;-75
2023/04/19 23:46:36;;;;;;;3.80;3.50;;;9.90;42.40;;;;;;10329707;28;20238;-75
2023/04/19 23:51:40;;;;;;;4.37;4.07;;;9.90;42.60;;;;;;10329944;28;20719;-74
2023/04/19 23:56:44;;;;;;;4.13;3.83;;;9.90;42.30;;;;;;10329121;28;20222;-77
